Time;durP1;ratioP1;P1;durP2;ratioP2;P2;SDS_P1;SDS_P2;PMS_P1;PMS_P2;Temp;Humidity;BMP_temperature;BMP_pressure;BME280_temperature;BME280_humidity;BME280_pressure;Samples;Min_cycle;Max_cycle;Signal;HPM_P1;HPM_P2
2023/10/22 00:02:24;;;;;;;3.15;1.73;;;9.30;99.90;;;;;;5056280;28;20094;-51
2023/10/22 00:04:50;;;;;;;3.08;1.88;;;9.40;99.90;;;;;;5055490;28;20033;-47
2023/10/22 00:07:16;;;;;;;4.18;1.77;;;9.30;99.90;;;;;;5056491;28;20049;-50
2023/10/22 00:09:42;;;;;;;4.40;1.55;;;9.30;99.90;;;;;;5056712;28;20048;-50
2023/10/22 00:12:08;;;;;;;4.00;1.60;;;9.30;99.90;;;;;;5056656;28;20422;-50
2023/10/22 00:14:33;;;;;;;3.88;1.80;;;9.20;99.90;;;;;;5056576;28;20155;-51
2023/10/22 00:16:59;;;;;;;4.75;2.10;;;9.20;99.90;;;;;;5055206;28;20097;-50
2023/10/22 00:19:25;;;;;;;10.30;2.47;;;9.20;99.90;;;;;;5056071;28;20442;-50
2023/10/22 00:21:50;;;;;;;5.35;2.38;;;9.10;99.90;;;;;;5056388;28;20033;-50
2023/10/22 00:24:16;;;;;;;6.20;1.80;;;9.10;99.90;;;;;;5055214;28;20825;-50
2023/10/22 00:26:42;;;;;;;2.25;1.50;;;9.00;99.90;;;;;;5056083;28;20033;-51
2023/10/22 00:29:07;;;;;;;5.15;2.10;;;9.00;99.90;;;;;;5056541;28;20033;-51
2023/10/22 00:31:33;;;;;;;3.92;1.73;;;9.00;99.90;;;;;;5056208;28;20041;-50
2023/10/22 00:33:59;;;;;;;7.40;2.30;;;8.90;99.90;;;;;;5055693;28;20437;-50
2023/10/22 00:36:24;;;;;;;6.43;2.88;;;8.90;99.90;;;;;;5055204;28;20057;-50
2023/10/22 00:38:51;;;;;;;4.15;1.88;;;8.80;99.90;;;;;;5056323;28;20114;-50
2023/10/22 00:41:16;;;;;;;4.60;2.00;;;8.80;99.90;;;;;;5056130;28;20044;-50
2023/10/22 00:43:42;;;;;;;6.18;1.83;;;8.70;99.90;;;;;;5055446;28;20037;-50
2023/10/22 00:46:13;;;;;;;4.38;1.67;;;8.70;99.90;;;;;;5055801;28;20040;-49
2023/10/22 00:48:38;;;;;;;4.35;1.98;;;8.60;99.90;;;;;;5054745;28;20078;-50
2023/10/22 00:51:04;;;;;;;4.38;1.63;;;8.60;99.90;;;;;;5055812;28;20033;-50
2023/10/22 00:53:31;;;;;;;4.25;2.00;;;8.60;99.90;;;;;;5055916;28;20414;-50
2023/10/22 00:55:57;;;;;;;8.40;2.65;;;8.60;99.90;;;;;;5054696;28;20047;-48
2023/10/22 00:58:22;;;;;;;3.28;1.60;;;8.50;99.90;;;;;;5055472;28;20062;-50
2023/10/22 01:00:48;;;;;;;7.30;2.40;;;8.50;99.90;;;;;;5037797;28;20047;-50
2023/10/22 01:03:13;;;;;;;3.60;1.50;;;8.50;99.90;;;;;;5055810;28;20041;-50
2023/10/22 01:05:39;;;;;;;4.07;1.60;;;8.40;99.90;;;;;;5055471;28;20033;-49
2023/10/22 01:08:08;;;;;;;2.97;1.70;;;8.40;99.90;;;;;;5054759;28;20037;-50
2023/10/22 01:10:33;;;;;;;3.78;1.70;;;8.30;99.90;;;;;;5054253;28;20044;-50
2023/10/22 01:12:59;;;;;;;3.25;1.77;;;8.20;99.90;;;;;;5055337;28;20033;-50
2023/10/22 01:15:26;;;;;;;4.75;1.63;;;8.20;99.90;;;;;;5053965;28;20043;-51
2023/10/22 01:17:51;;;;;;;3.60;1.45;;;8.20;99.90;;;;;;5055430;28;20079;-50
2023/10/22 01:20:17;;;;;;;3.05;1.63;;;8.20;99.90;;;;;;5054968;28;20060;-50
2023/10/22 01:22:43;;;;;;;3.88;1.73;;;8.10;99.90;;;;;;5055168;28;20060;-50
2023/10/22 01:25:08;;;;;;;3.20;1.20;;;8.10;99.90;;;;;;5054940;28;20028;-50
2023/10/22 01:27:35;;;;;;;3.85;1.30;;;8.10;99.90;;;;;;5055170;28;20054;-50
2023/10/22 01:30:01;;;;;;;4.50;1.50;;;8.10;99.90;;;;;;5055205;28;20087;-50
2023/10/22 01:32:30;;;;;;;3.80;1.50;;;8.20;99.90;;;;;;5055107;28;20029;-51
2023/10/22 01:35:00;;;;;;;4.23;1.43;;;8.20;99.90;;;;;;5054913;28;20040;-50
2023/10/22 01:37:25;;;;;;;3.80;1.17;;;8.20;99.90;;;;;;5053898;28;20361;-47
2023/10/22 01:39:52;;;;;;;3.22;1.30;;;8.20;99.90;;;;;;5054992;28;20095;-47
2023/10/22 01:42:17;;;;;;;4.13;1.20;;;8.20;99.90;;;;;;5054617;28;20033;-47
2023/10/22 01:44:43;;;;;;;5.38;1.40;;;8.20;99.90;;;;;;5054682;28;20029;-47
2023/10/22 01:47:10;;;;;;;3.67;1.25;;;8.20;99.90;;;;;;5054864;28;20029;-47
2023/10/22 01:49:36;;;;;;;3.55;1.42;;;8.20;99.90;;;;;;5054966;28;20033;-47
2023/10/22 01:52:02;;;;;;;3.50;1.02;;;8.20;99.90;;;;;;5053316;28;20527;-47
2023/10/22 01:54:28;;;;;;;6.68;1.42;;;8.20;99.90;;;;;;5054418;28;20458;-49
2023/10/22 01:56:54;;;;;;;3.58;1.00;;;8.20;99.90;;;;;;5054558;28;20029;-48
2023/10/22 01:59:19;;;;;;;3.35;1.40;;;8.20;99.90;;;;;;5054735;28;20067;-50
2023/10/22 02:01:45;;;;;;;3.65;1.50;;;8.20;99.90;;;;;;5054636;28;20033;-48
2023/10/22 02:04:11;;;;;;;2.92;1.17;;;8.20;99.90;;;;;;5054825;28;20037;-48
2023/10/22 02:06:36;;;;;;;4.97;1.58;;;8.20;99.90;;;;;;5054409;28;20158;-48
2023/10/22 02:09:02;;;;;;;5.28;1.30;;;8.20;99.90;;;;;;5054694;28;20437;-50
2023/10/22 02:11:28;;;;;;;6.40;1.40;;;8.20;99.90;;;;;;5054852;28;20336;-47
2023/10/22 02:13:54;;;;;;;5.00;1.30;;;8.20;99.90;;;;;;5054664;28;20037;-49
2023/10/22 02:16:19;;;;;;;3.00;1.20;;;8.20;99.90;;;;;;5054722;28;20116;-48
2023/10/22 02:18:45;;;;;;;3.42;1.10;;;8.20;99.90;;;;;;5054616;28;20042;-49
2023/10/22 02:21:11;;;;;;;5.35;1.42;;;8.20;99.90;;;;;;5054357;28;20086;-50
2023/10/22 02:23:39;;;;;;;2.60;1.40;;;8.20;99.90;;;;;;5053188;28;20120;-50
2023/10/22 02:26:05;;;;;;;4.53;1.30;;;8.10;99.90;;;;;;5054165;28;20056;-50
2023/10/22 02:28:32;;;;;;;4.13;1.52;;;8.00;99.90;;;;;;5054441;28;20037;-47
2023/10/22 02:30:58;;;;;;;3.47;1.30;;;7.90;99.90;;;;;;5054309;28;20349;-48
2023/10/22 02:33:23;;;;;;;4.25;1.42;;;7.90;99.90;;;;;;5053447;28;20117;-47
2023/10/22 02:35:49;;;;;;;3.65;1.52;;;7.70;99.90;;;;;;5054618;28;20087;-47
2023/10/22 02:38:15;;;;;;;3.90;1.50;;;7.70;99.90;;;;;;5054468;28;20029;-50
2023/10/22 02:40:41;;;;;;;3.55;1.50;;;7.70;99.90;;;;;;5054026;28;20040;-49
2023/10/22 02:43:07;;;;;;;4.20;1.60;;;7.60;99.90;;;;;;5053146;28;20045;-50
2023/10/22 02:45:33;;;;;;;4.03;1.52;;;7.60;99.90;;;;;;5054345;28;20057;-49
2023/10/22 02:47:59;;;;;;;2.20;1.20;;;7.50;99.90;;;;;;5054370;28;20435;-48
2023/10/22 02:50:25;;;;;;;4.43;1.40;;;7.50;99.90;;;;;;5054202;28;20078;-49
2023/10/22 02:52:51;;;;;;;3.88;1.30;;;7.50;99.90;;;;;;5054119;28;20033;-50
2023/10/22 02:55:17;;;;;;;3.53;1.40;;;7.50;99.90;;;;;;5053052;28;20090;-49
2023/10/22 02:57:43;;;;;;;2.47;1.40;;;7.40;99.90;;;;;;5054438;28;20443;-51
2023/10/22 03:00:10;;;;;;;3.10;1.60;;;7.40;99.90;;;;;;5054252;28;20500;-50
2023/10/22 03:02:42;;;;;;;4.88;1.33;;;7.40;99.90;;;;;;5054300;28;20351;-50
2023/10/22 03:05:08;;;;;;;3.17;1.38;;;7.30;99.90;;;;;;5054169;28;20044;-50
2023/10/22 03:07:34;;;;;;;2.28;1.25;;;7.30;99.90;;;;;;5055302;28;20041;-48
2023/10/22 03:10:00;;;;;;;4.88;1.27;;;7.30;99.90;;;;;;5057415;28;20458;-50
2023/10/22 03:12:25;;;;;;;4.28;1.38;;;7.30;99.90;;;;;;5057710;28;20033;-49
2023/10/22 03:14:52;;;;;;;3.42;1.40;;;7.30;99.90;;;;;;5056763;28;20029;-50
2023/10/22 03:17:18;;;;;;;5.93;1.38;;;7.20;99.90;;;;;;5057792;28;20033;-49
2023/10/22 03:19:43;;;;;;;3.53;1.20;;;7.20;99.90;;;;;;5057707;28;20091;-49
2023/10/22 03:22:09;;;;;;;3.90;1.17;;;7.20;99.90;;;;;;5057589;28;20037;-49
2023/10/22 03:24:35;;;;;;;2.35;1.20;;;7.10;99.90;;;;;;5057553;28;20465;-50
2023/10/22 03:27:04;;;;;;;3.40;1.30;;;7.10;99.90;;;;;;5057217;28;20033;-50
2023/10/22 03:29:30;;;;;;;5.45;1.45;;;7.10;99.90;;;;;;5057454;28;20021;-50
2023/10/22 03:31:55;;;;;;;4.22;1.42;;;7.10;99.90;;;;;;5057580;28;20122;-50
2023/10/22 03:34:21;;;;;;;4.15;1.52;;;7.00;99.90;;;;;;5057065;28;20427;-50
2023/10/22 03:36:47;;;;;;;4.53;1.60;;;7.00;99.90;;;;;;5057454;28;20166;-49
2023/10/22 03:39:13;;;;;;;4.25;1.45;;;7.00;99.90;;;;;;5057290;28;20064;-50
2023/10/22 03:41:39;;;;;;;7.28;1.58;;;7.00;99.90;;;;;;5056936;28;20126;-52
2023/10/22 03:44:05;;;;;;;5.10;1.45;;;6.90;99.90;;;;;;5057694;28;20072;-50
2023/10/22 03:46:31;;;;;;;4.00;1.30;;;6.90;99.90;;;;;;5057149;28;20036;-50
2023/10/22 03:48:57;;;;;;;3.72;1.30;;;6.90;99.90;;;;;;5057045;28;20025;-50
2023/10/22 03:51:24;;;;;;;3.58;1.27;;;6.90;99.90;;;;;;5057047;28;20107;-50
2023/10/22 03:53:52;;;;;;;4.00;1.33;;;6.80;99.90;;;;;;5057237;28;20037;-50
2023/10/22 03:56:18;;;;;;;2.55;1.40;;;6.80;99.90;;;;;;5057137;28;20513;-50
2023/10/22 03:58:44;;;;;;;6.10;1.40;;;6.80;99.90;;;;;;5056709;28;20076;-49
2023/10/22 04:01:09;;;;;;;4.20;1.45;;;6.80;99.90;;;;;;5056761;28;20033;-47
2023/10/22 04:03:35;;;;;;;5.00;1.70;;;6.70;99.90;;;;;;5056015;28;20362;-49
2023/10/22 04:06:01;;;;;;;2.38;1.45;;;6.70;99.90;;;;;;5055399;28;20041;-50
2023/10/22 04:08:28;;;;;;;5.90;1.30;;;6.70;99.90;;;;;;5056780;28;20025;-50
2023/10/22 04:10:54;;;;;;;11.65;2.03;;;6.70;99.90;;;;;;5056723;28;20029;-50
2023/10/22 04:13:19;;;;;;;3.88;1.48;;;6.70;99.90;;;;;;5056381;28;20033;-50
2023/10/22 04:15:45;;;;;;;3.13;1.30;;;6.70;99.90;;;;;;5056277;28;20036;-50
2023/10/22 04:18:14;;;;;;;2.97;1.17;;;6.60;99.90;;;;;;5056538;28;20437;-50
2023/10/22 04:20:41;;;;;;;2.80;1.20;;;6.60;99.90;;;;;;5056534;28;20072;-50
2023/10/22 04:23:08;;;;;;;7.57;1.48;;;6.60;99.90;;;;;;5056228;28;20048;-50
2023/10/22 04:25:38;;;;;;;4.22;1.67;;;6.60;99.90;;;;;;5056546;28;20082;-49
2023/10/22 04:28:04;;;;;;;6.80;1.52;;;6.60;99.90;;;;;;5056478;28;20354;-50
2023/10/22 04:30:30;;;;;;;2.03;1.30;;;6.60;99.90;;;;;;5056369;28;20029;-50
2023/10/22 04:32:55;;;;;;;2.40;1.20;;;6.60;99.90;;;;;;5055118;28;20047;-50
2023/10/22 04:35:21;;;;;;;4.53;1.38;;;6.60;99.90;;;;;;5056196;28;20029;-50
2023/10/22 04:37:47;;;;;;;4.32;1.63;;;6.60;99.90;;;;;;5056375;28;20136;-50
2023/10/22 04:40:12;;;;;;;3.13;1.50;;;6.60;99.90;;;;;;5056139;28;20048;-50
2023/10/22 04:42:38;;;;;;;4.10;1.50;;;6.60;99.90;;;;;;5055815;28;20036;-49
2023/10/22 04:45:04;;;;;;;3.97;1.30;;;6.60;99.90;;;;;;5055055;28;20040;-50
2023/10/22 04:47:29;;;;;;;4.53;1.60;;;6.60;99.90;;;;;;5056190;28;20351;-50
2023/10/22 04:49:55;;;;;;;5.35;1.95;;;6.50;99.90;;;;;;5056000;28;20040;-50
2023/10/22 04:52:34;;;;;;;3.58;1.40;;;6.50;99.90;;;;;;5055593;28;20082;-48
2023/10/22 04:55:00;;;;;;;3.13;1.42;;;6.50;99.90;;;;;;5055933;28;20071;-50
2023/10/22 04:57:26;;;;;;;8.43;1.60;;;6.40;99.90;;;;;;5055829;28;20362;-50
2023/10/22 04:59:52;;;;;;;4.22;1.42;;;6.40;99.90;;;;;;5056070;28;20324;-50
2023/10/22 05:02:18;;;;;;;3.00;1.20;;;6.40;99.90;;;;;;5055199;28;20040;-49
2023/10/22 05:04:47;;;;;;;2.78;1.30;;;6.40;99.90;;;;;;5054426;28;20029;-50
2023/10/22 05:07:14;;;;;;;3.87;1.20;;;6.40;99.90;;;;;;5055294;28;20048;-50
2023/10/22 05:09:39;;;;;;;2.80;1.40;;;6.40;99.90;;;;;;5055597;28;20033;-49
2023/10/22 05:12:05;;;;;;;3.58;1.20;;;6.40;99.90;;;;;;5055584;28;20469;-50
2023/10/22 05:14:31;;;;;;;6.03;1.40;;;6.40;99.90;;;;;;5055288;28;20033;-49
2023/10/22 05:16:57;;;;;;;6.35;1.70;;;6.40;99.90;;;;;;5054305;28;20029;-50
2023/10/22 05:19:23;;;;;;;4.50;1.25;;;6.40;99.90;;;;;;5055543;28;20094;-50
2023/10/22 05:21:48;;;;;;;3.58;1.35;;;6.30;99.90;;;;;;5055287;28;20155;-50
2023/10/22 05:24:14;;;;;;;4.18;1.48;;;6.30;99.90;;;;;;5055378;28;20021;-50
2023/10/22 05:26:40;;;;;;;6.45;1.50;;;6.30;99.90;;;;;;5055481;28;20367;-49
2023/10/22 05:29:06;;;;;;;3.60;1.40;;;6.30;99.90;;;;;;5055236;28;20119;-50
2023/10/22 05:31:32;;;;;;;4.60;1.20;;;6.30;99.90;;;;;;5053708;28;20028;-50
2023/10/22 05:33:57;;;;;;;5.93;1.45;;;6.20;99.90;;;;;;5055247;28;20111;-50
2023/10/22 05:36:23;;;;;;;3.95;1.15;;;6.20;99.90;;;;;;5055324;28;20036;-49
2023/10/22 05:38:49;;;;;;;7.88;1.73;;;6.10;99.90;;;;;;5053818;28;20072;-48
2023/10/22 05:41:28;;;;;;;3.65;1.25;;;6.10;99.90;;;;;;5054010;28;20466;-50
2023/10/22 05:44:00;;;;;;;4.07;1.30;;;6.10;99.90;;;;;;5055267;28;20454;-50
2023/10/22 05:46:26;;;;;;;4.80;1.50;;;6.00;99.90;;;;;;5055113;28;20060;-50
2023/10/22 05:48:52;;;;;;;3.65;1.40;;;6.10;99.90;;;;;;5054984;28;20398;-50
2023/10/22 05:51:18;;;;;;;3.70;1.30;;;6.00;99.90;;;;;;5054940;28;20098;-49
2023/10/22 05:53:44;;;;;;;8.55;1.60;;;6.00;99.90;;;;;;5055206;28;20447;-49
2023/10/22 05:56:10;;;;;;;9.00;1.40;;;6.00;99.90;;;;;;5054913;28;20043;-50
2023/10/22 05:58:37;;;;;;;3.70;1.30;;;6.00;99.90;;;;;;5054779;28;20033;-50
2023/10/22 06:01:02;;;;;;;4.70;1.65;;;6.00;99.90;;;;;;5053676;28;20037;-49
2023/10/22 06:03:28;;;;;;;3.33;1.33;;;6.00;99.90;;;;;;5053391;28;20059;-49
2023/10/22 06:05:54;;;;;;;4.25;1.38;;;6.00;99.90;;;;;;5054438;28;20076;-50
2023/10/22 06:08:20;;;;;;;4.75;1.33;;;5.90;99.90;;;;;;5054747;28;20069;-49
2023/10/22 06:10:48;;;;;;;2.65;1.42;;;5.80;99.90;;;;;;5054703;28;20060;-50
2023/10/22 06:13:14;;;;;;;3.65;1.45;;;5.80;99.90;;;;;;5053501;28;20040;-49
2023/10/22 06:15:43;;;;;;;4.93;1.70;;;5.80;99.90;;;;;;5054815;28;20032;-50
2023/10/22 06:18:09;;;;;;;3.75;1.80;;;5.80;99.90;;;;;;5054669;28;20079;-49
2023/10/22 06:20:35;;;;;;;6.18;1.60;;;5.80;99.90;;;;;;5053639;28;20429;-49
2023/10/22 06:23:02;;;;;;;6.22;2.08;;;5.80;99.90;;;;;;5053542;28;20110;-49
2023/10/22 06:25:27;;;;;;;5.53;1.65;;;5.80;99.90;;;;;;5054594;28;20430;-49
2023/10/22 06:27:57;;;;;;;4.57;1.60;;;5.80;99.90;;;;;;5054562;28;20037;-50
2023/10/22 06:30:23;;;;;;;2.70;1.35;;;5.80;99.90;;;;;;5054779;28;20029;-50
2023/10/22 06:32:52;;;;;;;6.72;2.00;;;5.80;99.90;;;;;;5054514;28;20122;-50
2023/10/22 06:35:19;;;;;;;6.32;3.75;;;5.80;99.90;;;;;;5054030;28;20037;-50
2023/10/22 06:37:47;;;;;;;4.75;1.90;;;5.80;99.90;;;;;;5053449;28;20037;-49
2023/10/22 06:40:13;;;;;;;6.10;2.00;;;5.70;99.90;;;;;;5054441;28;20116;-49
2023/10/22 06:42:40;;;;;;;6.20;1.90;;;5.70;99.90;;;;;;5055720;28;20112;-50
2023/10/22 06:45:07;;;;;;;8.07;1.90;;;5.70;99.90;;;;;;5058119;28;20100;-50
2023/10/22 06:47:38;;;;;;;5.78;1.60;;;5.70;99.90;;;;;;5056787;28;20037;-49
2023/10/22 06:50:05;;;;;;;5.53;2.17;;;5.70;99.90;;;;;;5058065;28;20442;-49
2023/10/22 06:52:31;;;;;;;7.05;2.33;;;5.70;99.90;;;;;;5058211;28;20048;-49
2023/10/22 06:54:56;;;;;;;5.05;1.95;;;5.70;99.90;;;;;;5058134;28;20045;-50
2023/10/22 06:57:22;;;;;;;5.13;1.67;;;5.70;99.90;;;;;;5058289;28;20037;-49
2023/10/22 06:59:48;;;;;;;5.45;2.00;;;5.70;99.90;;;;;;5058162;28;20033;-49
2023/10/22 07:02:15;;;;;;;9.93;1.88;;;5.70;99.90;;;;;;5057893;28;20116;-49
2023/10/22 07:04:41;;;;;;;4.18;1.60;;;5.60;99.90;;;;;;5058082;28;20025;-49
2023/10/22 07:07:07;;;;;;;7.43;2.10;;;5.70;99.90;;;;;;5057338;28;20064;-49
2023/10/22 07:09:32;;;;;;;4.47;1.95;;;5.70;99.90;;;;;;5057933;28;20044;-46
2023/10/22 07:11:58;;;;;;;4.25;1.70;;;5.60;99.90;;;;;;5057793;28;20032;-47
2023/10/22 07:14:24;;;;;;;5.00;1.80;;;5.60;99.90;;;;;;5057717;28;20048;-49
2023/10/22 07:16:49;;;;;;;4.25;1.50;;;5.60;99.90;;;;;;5057722;28;20032;-47
2023/10/22 07:19:15;;;;;;;4.18;1.67;;;5.60;99.90;;;;;;5057572;28;20408;-46
2023/10/22 07:21:40;;;;;;;4.38;1.70;;;5.60;99.90;;;;;;5057075;28;20043;-48
2023/10/22 07:24:06;;;;;;;3.67;1.73;;;5.60;99.90;;;;;;5057533;28;20080;-47
2023/10/22 07:26:32;;;;;;;3.15;1.27;;;5.60;99.90;;;;;;5057325;28;20447;-50
2023/10/22 07:28:58;;;;;;;7.15;1.90;;;5.80;99.90;;;;;;5057623;28;20112;-48
2023/10/22 07:31:24;;;;;;;4.22;1.88;;;5.90;99.90;;;;;;5057178;28;20374;-46
2023/10/22 07:33:50;;;;;;;2.75;1.48;;;5.80;99.90;;;;;;5057658;28;20029;-49
2023/10/22 07:36:16;;;;;;;3.35;1.75;;;5.80;99.90;;;;;;5057460;28;20037;-50
2023/10/22 07:38:41;;;;;;;6.13;1.90;;;5.80;99.90;;;;;;5057401;28;20090;-50
2023/10/22 07:41:14;;;;;;;6.07;2.08;;;5.80;99.90;;;;;;5039397;28;20454;-49
2023/10/22 07:43:39;;;;;;;4.63;2.10;;;5.80;99.90;;;;;;5057195;28;20033;-49
2023/10/22 07:46:05;;;;;;;3.97;2.00;;;5.90;99.90;;;;;;5057133;28;20366;-46
2023/10/22 07:48:32;;;;;;;5.50;3.40;;;6.00;99.90;;;;;;5056805;28;20029;-46
2023/10/22 07:51:10;;;;;;;6.25;2.40;;;6.20;99.90;;;;;;5056995;28;20033;-46
2023/10/22 07:53:36;;;;;;;6.03;2.30;;;6.90;99.90;;;;;;5056705;28;20074;-48
2023/10/22 07:56:03;;;;;;;6.68;2.42;;;7.80;99.90;;;;;;5056841;28;20036;-50
2023/10/22 07:58:28;;;;;;;4.97;2.40;;;8.60;99.90;;;;;;5056590;28;20029;-49
2023/10/22 08:00:54;;;;;;;5.40;2.50;;;9.50;99.90;;;;;;5056933;28;20416;-47
2023/10/22 08:03:20;;;;;;;9.05;2.28;;;10.10;99.90;;;;;;5056910;28;20048;-47
2023/10/22 08:05:45;;;;;;;3.03;1.40;;;10.60;99.90;;;;;;5056630;28;20041;-46
2023/10/22 08:08:11;;;;;;;7.03;1.50;;;10.70;99.90;;;;;;5057278;28;20037;-50
2023/10/22 08:10:37;;;;;;;3.95;1.63;;;10.40;99.90;;;;;;5056615;28;20032;-48
2023/10/22 08:13:02;;;;;;;2.45;1.40;;;10.10;99.90;;;;;;5055555;28;20037;-48
2023/10/22 08:15:28;;;;;;;2.80;1.42;;;10.90;99.90;;;;;;5056586;28;20028;-50
2023/10/22 08:17:53;;;;;;;5.22;2.08;;;10.80;99.90;;;;;;5056569;28;20100;-49
2023/10/22 08:20:19;;;;;;;4.85;1.50;;;11.30;99.90;;;;;;5056204;28;20044;-48
2023/10/22 08:22:45;;;;;;;4.63;1.40;;;12.10;99.90;;;;;;5056190;28;20079;-48
2023/10/22 08:25:10;;;;;;;3.05;1.70;;;12.50;99.90;;;;;;5056277;28;20032;-50
2023/10/22 08:27:36;;;;;;;4.18;2.33;;;12.70;99.90;;;;;;5055822;28;20029;-47
2023/10/22 08:30:02;;;;;;;12.05;5.03;;;12.40;99.90;;;;;;5056461;28;20140;-50
2023/10/22 08:32:27;;;;;;;13.25;6.13;;;13.00;99.90;;;;;;5056419;28;20107;-49
2023/10/22 08:34:53;;;;;;;11.75;5.57;;;13.80;99.90;;;;;;5055978;28;20044;-50
2023/10/22 08:37:19;;;;;;;11.65;7.47;;;14.50;99.90;;;;;;5056112;28;20043;-52
2023/10/22 08:39:44;;;;;;;10.02;5.07;;;15.00;99.90;;;;;;5056250;28;20397;-51
2023/10/22 08:42:11;;;;;;;10.70;6.32;;;14.70;99.90;;;;;;5056034;28;20512;-51
2023/10/22 08:44:47;;;;;;;10.98;6.85;;;15.00;99.90;;;;;;5054903;28;20053;-50
2023/10/22 08:47:13;;;;;;;10.75;6.55;;;15.70;99.90;;;;;;5055976;28;20029;-51
2023/10/22 08:49:39;;;;;;;12.80;6.43;;;15.90;98.60;;;;;;5055844;28;20435;-51
2023/10/22 08:52:05;;;;;;;9.60;5.38;;;16.20;99.10;;;;;;5055795;28;20369;-50
2023/10/22 08:54:30;;;;;;;13.73;6.07;;;16.10;97.30;;;;;;5037948;28;20047;-49
2023/10/22 08:56:56;;;;;;;7.07;4.10;;;14.50;99.10;;;;;;5055258;28;20069;-49
2023/10/22 08:59:22;;;;;;;10.52;3.78;;;13.30;99.90;;;;;;5055798;28;20071;-49
2023/10/22 09:01:47;;;;;;;7.13;3.88;;;12.80;99.90;;;;;;5054571;28;20037;-51
2023/10/22 09:04:13;;;;;;;7.65;3.63;;;12.30;99.90;;;;;;5055463;28;20086;-50
2023/10/22 09:06:39;;;;;;;11.07;3.70;;;11.80;99.90;;;;;;5054529;28;20425;-50
2023/10/22 09:09:04;;;;;;;9.88;3.78;;;11.50;99.90;;;;;;5055536;28;20032;-52
2023/10/22 09:11:30;;;;;;;12.95;4.13;;;11.20;99.90;;;;;;5055427;28;20064;-50
2023/10/22 09:13:56;;;;;;;7.72;4.13;;;11.00;99.90;;;;;;5055578;28;20031;-51
2023/10/22 09:16:32;;;;;;;9.45;3.47;;;11.00;99.90;;;;;;5054477;28;20044;-51
2023/10/22 09:18:58;;;;;;;5.82;3.60;;;11.00;99.90;;;;;;5055567;28;20029;-51
2023/10/22 09:21:35;;;;;;;8.30;4.70;;;11.30;99.90;;;;;;5055565;28;20361;-51
2023/10/22 09:24:07;;;;;;;9.23;4.82;;;11.80;99.90;;;;;;5054038;28;20036;-49
2023/10/22 09:26:42;;;;;;;5.82;4.07;;;13.70;99.90;;;;;;5054632;28;20116;-49
2023/10/22 09:29:08;;;;;;;6.57;3.70;;;15.40;99.90;;;;;;5053774;28;20412;-52
2023/10/22 09:31:34;;;;;;;8.32;3.75;;;16.60;99.90;;;;;;5054099;28;20056;-51
2023/10/22 09:34:00;;;;;;;5.15;3.95;;;17.60;97.00;;;;;;5055013;28;20059;-52
2023/10/22 09:36:25;;;;;;;7.00;3.70;;;18.40;91.10;;;;;;5054411;28;20434;-53
2023/10/22 09:38:52;;;;;;;6.22;3.00;;;19.50;86.10;;;;;;5055110;28;20039;-57
2023/10/22 09:41:23;;;;;;;8.00;3.30;;;19.90;78.60;;;;;;5054595;28;20029;-49
2023/10/22 09:43:59;;;;;;;4.95;2.33;;;20.20;74.70;;;;;;5054939;28;20021;-53
2023/10/22 09:46:30;;;;;;;10.43;3.47;;;20.50;68.60;;;;;;5053538;28;20055;-52
2023/10/22 09:49:00;;;;;;;6.50;2.50;;;20.30;68.80;;;;;;5055016;28;20417;-52
2023/10/22 09:51:33;;;;;;;;;;;20.30;65.80;;;;;;5055159;28;20106;-53
2023/10/22 09:54:03;;;;;;;5.07;2.22;;;20.40;66.60;;;;;;5054607;28;19924;-52
2023/10/22 09:56:28;;;;;;;2.47;1.15;;;20.40;67.70;;;;;;5054553;28;20044;-53
2023/10/22 09:58:58;;;;;;;5.80;1.58;;;21.20;62.10;;;;;;5053383;28;20033;-52
2023/10/22 10:01:26;;;;;;;3.30;1.70;;;21.20;60.60;;;;;;5053337;28;20397;-53
2023/10/22 10:03:53;;;;;;;5.47;1.20;;;21.40;58.20;;;;;;5054660;28;20033;-53
2023/10/22 10:06:18;;;;;;;4.38;1.50;;;21.70;53.90;;;;;;5020747;28;20059;-52
2023/10/22 10:08:44;;;;;;;3.50;1.20;;;21.90;51.80;;;;;;5054146;28;20029;-52
2023/10/22 10:11:10;;;;;;;4.07;1.30;;;22.10;50.30;;;;;;5054471;28;20033;-53
2023/10/22 10:13:36;;;;;;;4.00;1.20;;;22.10;47.30;;;;;;5054556;28;20029;-52
2023/10/22 10:16:03;;;;;;;2.95;1.30;;;22.80;43.50;;;;;;5054751;28;20492;-51
2023/10/22 10:19:04;;;;;;;2.90;1.10;;;22.70;44.00;;;;;;5058611;28;20033;-52
2023/10/22 10:21:38;;;;;;;2.95;1.10;;;23.10;40.30;;;;;;5058718;28;20037;-50
2023/10/22 10:24:17;;;;;;;4.68;1.25;;;22.80;38.80;;;;;;5058542;28;20029;-53
2023/10/22 10:26:43;;;;;;;3.83;1.17;;;22.80;42.00;;;;;;5057358;28;20442;-51
2023/10/22 10:29:33;;;;;;;1.88;0.80;;;23.40;38.40;;;;;;5058391;28;20025;-53
2023/10/22 10:32:14;;;;;;;3.10;1.48;;;23.80;32.30;;;;;;5058373;28;20052;-52
2023/10/22 10:34:41;;;;;;;1.85;1.10;;;24.20;33.10;;;;;;5058168;28;20041;-52
2023/10/22 10:37:11;;;;;;;2.03;1.00;;;24.10;29.00;;;;;;5057313;28;20059;-53
2023/10/22 10:39:51;;;;;;;2.55;1.00;;;24.10;29.20;;;;;;5058648;28;20032;-52
2023/10/22 10:42:29;;;;;;;2.85;1.13;;;24.40;27.70;;;;;;5058298;28;20060;-53
2023/10/22 10:44:58;;;;;;;4.90;1.90;;;23.60;28.70;;;;;;5057800;28;20451;-53
2023/10/22 10:47:33;;;;;;;4.15;1.63;;;24.10;31.00;;;;;;5058143;28;20029;-52
2023/10/22 10:50:10;;;;;;;3.33;1.13;;;24.60;29.00;;;;;;5058029;28;20067;-52
2023/10/22 10:52:42;;;;;;;3.67;1.40;;;23.00;28.40;;;;;;5057746;28;20160;-52
2023/10/22 10:55:19;;;;;;;4.45;1.65;;;23.60;29.00;;;;;;5057904;28;20048;-53
2023/10/22 10:57:48;;;;;;;4.20;1.70;;;21.50;27.40;;;;;;5058737;28;20452;-52
2023/10/22 11:00:19;;;;;;;3.63;0.90;;;22.10;28.20;;;;;;5056633;28;20410;-52
2023/10/22 11:02:51;;;;;;;3.35;1.23;;;23.10;25.90;;;;;;5057574;28;20031;-53
2023/10/22 11:05:29;;;;;;;3.42;1.20;;;22.00;26.00;;;;;;5057659;28;20029;-52
2023/10/22 11:07:55;;;;;;;5.80;1.90;;;22.70;27.30;;;;;;5057699;28;20395;-51
2023/10/22 11:10:21;;;;;;;3.53;1.50;;;21.20;26.60;;;;;;5057272;28;20127;-49
2023/10/22 11:12:46;;;;;;;5.05;2.08;;;21.60;29.80;;;;;;5057742;28;20048;-52
2023/10/22 11:15:13;;;;;;;3.55;1.50;;;21.50;28.30;;;;;;5057587;28;20431;-51
2023/10/22 11:17:40;;;;;;;2.85;1.02;;;21.40;28.40;;;;;;5056242;28;20095;-51
2023/10/22 11:20:07;;;;;;;3.15;1.40;;;22.10;28.90;;;;;;5056990;28;20350;-52
2023/10/22 11:22:32;;;;;;;3.67;1.42;;;23.00;26.70;;;;;;5057223;28;20036;-52
2023/10/22 11:25:00;;;;;;;3.35;1.40;;;23.70;23.10;;;;;;5057154;28;20362;-52
2023/10/22 11:27:26;;;;;;;2.13;0.93;;;24.10;23.40;;;;;;5056040;28;20370;-52
2023/10/22 11:29:52;;;;;;;2.13;1.10;;;24.80;20.70;;;;;;5055713;28;20025;-53
2023/10/22 11:32:19;;;;;;;2.90;1.63;;;24.80;20.80;;;;;;5056060;28;20374;-53
2023/10/22 11:34:47;;;;;;;3.15;1.17;;;24.50;21.30;;;;;;5057328;28;20029;-52
2023/10/22 11:37:13;;;;;;;3.05;0.95;;;24.10;20.60;;;;;;5057067;28;20036;-52
2023/10/22 11:39:41;;;;;;;2.53;1.13;;;22.90;22.10;;;;;;5056146;28;20025;-53
2023/10/22 11:42:07;;;;;;;4.72;1.65;;;23.00;21.10;;;;;;5039440;28;20036;-51
2023/10/22 11:44:34;;;;;;;2.75;1.00;;;22.80;22.90;;;;;;5057097;28;20052;-51
2023/10/22 11:47:01;;;;;;;2.30;0.85;;;22.10;24.30;;;;;;5056977;28;20083;-51
2023/10/22 11:49:27;;;;;;;3.35;1.10;;;22.50;23.30;;;;;;5039468;28;20056;-51
2023/10/22 11:51:53;;;;;;;3.38;1.10;;;21.90;25.30;;;;;;5055620;28;20075;-50
2023/10/22 11:54:19;;;;;;;1.75;0.85;;;22.90;23.60;;;;;;5055384;28;20446;-51
2023/10/22 11:56:47;;;;;;;2.83;0.80;;;23.30;22.00;;;;;;5056462;28;20055;-51
2023/10/22 11:59:12;;;;;;;2.67;0.90;;;22.00;23.00;;;;;;5056483;28;20324;-50
2023/10/22 12:01:40;;;;;;;2.67;1.30;;;23.00;22.30;;;;;;5056537;28;20040;-50
2023/10/22 12:04:06;;;;;;;3.13;1.10;;;23.30;23.60;;;;;;5056074;28;20515;-48
2023/10/22 12:06:31;;;;;;;2.92;0.90;;;23.90;22.00;;;;;;5056286;28;20045;-51
2023/10/22 12:08:57;;;;;;;1.23;0.73;;;23.90;21.80;;;;;;5056702;28;20029;-51
2023/10/22 12:11:23;;;;;;;5.97;1.10;;;24.80;20.50;;;;;;5056346;28;20036;-51
2023/10/22 12:13:48;;;;;;;2.58;1.10;;;25.40;20.70;;;;;;5056517;28;20072;-51
2023/10/22 12:16:14;;;;;;;4.03;1.20;;;25.50;20.10;;;;;;5056391;28;20040;-50
2023/10/22 12:18:40;;;;;;;4.53;1.08;;;25.30;20.60;;;;;;5056157;28;20092;-54
2023/10/22 12:21:06;;;;;;;1.65;1.05;;;25.30;21.00;;;;;;5056084;28;20147;-52
2023/10/22 12:23:32;;;;;;;5.22;1.50;;;26.00;19.10;;;;;;5056254;28;20127;-49
2023/10/22 12:25:57;;;;;;;1.50;0.85;;;25.60;19.00;;;;;;5056173;28;20068;-52
2023/10/22 12:28:24;;;;;;;2.17;0.80;;;24.20;19.70;;;;;;5056361;28;20414;-51
2023/10/22 12:30:50;;;;;;;3.08;0.90;;;23.70;20.60;;;;;;5056234;28;20036;-52
2023/10/22 12:33:16;;;;;;;3.10;1.02;;;24.20;20.70;;;;;;5056058;28;20033;-51
2023/10/22 12:35:41;;;;;;;5.05;0.95;;;24.20;20.90;;;;;;5055685;28;20067;-52
2023/10/22 12:38:07;;;;;;;3.70;0.95;;;24.70;19.40;;;;;;5054617;28;20425;-52
2023/10/22 12:40:34;;;;;;;3.63;1.20;;;24.70;18.60;;;;;;5056271;28;20044;-51
2023/10/22 12:42:59;;;;;;;6.10;1.30;;;25.20;18.90;;;;;;5055649;28;20033;-52
2023/10/22 12:45:25;;;;;;;4.03;1.20;;;24.70;19.50;;;;;;5054695;28;20025;-51
2023/10/22 12:47:51;;;;;;;2.65;1.20;;;24.60;19.70;;;;;;5056460;28;20389;-52
2023/10/22 12:50:16;;;;;;;2.30;1.00;;;24.20;20.90;;;;;;5055496;28;20502;-51
2023/10/22 12:52:42;;;;;;;2.88;1.10;;;24.30;20.20;;;;;;5055779;28;20041;-52